Sunday, July 22, 2018, 8:43 AM EDT
Back to Local

KIAG, Niagara Falls International Airport

Location: Niagara Falls, NY, United States Lat: 43.117
Local Time: 8:43 AM EDT (12:43 GMT) Lon: -78.933
Time Zone: US/Eastern Elev: 583 ft

Show me the last for .
Show Decoded

2018-07-22 07:53 METAR KIAG 221153Z 06014KT 3SM RA BR OVC008 17/17 A2972 RMK AO2 SLP062 P0025
                 60074 70087 T01720167 10172 20156 56031 $ =
2018-07-22 07:50 METAR KIAG 221150Z 05011KT 2 1/2SM RA BR OVC008 17/17 A2972 RMK AO2 LTG DSNT E
                 P0025 $ =
2018-07-22 06:53 METAR KIAG 221053Z 04013KT 1 3/4SM +RA BR BKN006 BKN017 OVC033 17/17 A2975 RMK
                 AO2 SLP071 P0024 T01720167 $ =
2018-07-22 06:44 METAR KIAG 221044Z 03012KT 1 3/4SM +RA BR FEW006 SCT017 OVC033 17/16 A2976 RMK
                 AO2 P0018 T01670161 $ =
2018-07-22 06:39 METAR KIAG 221039Z 03013KT 2 1/2SM +RA BR SCT006 BKN026 OVC037 17/16 A2976 RMK
                 AO2 P0013 T01670161 $ =
2018-07-22 06:37 METAR KIAG 221037Z 03011KT 3SM +RA BR SCT005 BKN014 OVC041 17/16 A2976 RMK AO2
                 P0012 T01670161 $ =
2018-07-22 06:19 METAR KIAG 221019Z AUTO 02011KT 4SM RA BR FEW005 BKN015 OVC038 17/16 A2976 RMK
                 AO2 P0005 T01670161 $ =
2018-07-22 06:11 METAR KIAG 221011Z AUTO 03012KT 2 1/2SM RA BR FEW005 BKN020 OVC038 17/16 A2977
                 RMK AO2 P0004 T01670161 $ =
2018-07-22 06:04 METAR KIAG 221004Z AUTO 03011KT 2 1/2SM RA BR FEW013 BKN019 OVC040 17/16 A2978
                 RMK AO2 P0003 T01670156 $ =
2018-07-22 05:53 METAR KIAG 220953Z AUTO 03011KT 3SM RA BR FEW012 SCT018 OVC040 17/16 A2978 RMK
                 AO2 SLP080 P0010 T01670156 $ =
2018-07-22 05:37 METAR KIAG 220937Z AUTO 04012KT 5SM -RA BR FEW009 SCT026 OVC040 16/15 A2979 RMK
                 AO2 P0008 T01610150 $ =
2018-07-22 05:29 METAR KIAG 220929Z AUTO 04008KT 2 1/2SM RA BR FEW009 SCT016 OVC040 16/14 A2980
                 RMK AO2 P0007 T01560144 $ =
2018-07-22 04:53 METAR KIAG 220853Z AUTO 05009KT 5SM RA BR BKN042 OVC060 16/14 A2982 RMK AO2
                 SLP092 P0005 60015 T01560144 58019 $ =
2018-07-22 03:53 METAR KIAG 220753Z AUTO 05007KT 6SM RA BR OVC080 16/14 A2984 RMK AO2 SLP101
                 P0009 T01610144 $ =
2018-07-22 02:53 METAR KIAG 220653Z AUTO 06007KT 10SM -RA BKN055 OVC120 16/14 A2986 RMK AO2 RAB22
                 SLP109 P0001 T01610144 $ =
2018-07-22 01:53 METAR KIAG 220553Z AUTO 09003KT 10SM OVC040 16/13 A2987 RMK AO2 RAE47 SLP112
                 P0005 60013 T01560133 10244 20150 58016 $ =
2018-07-22 00:53 METAR KIAG 220453Z AUTO 11014KT 5SM -RA BR FEW043 BKN055 OVC075 16/13 A2990 RMK
                 AO2 SLP122 P0008 T01560133 402940156 $ =
2018-07-21 23:53 METAR KIAG 220353Z AUTO 12011KT 10SM -RA FEW080 BKN110 18/14 A2991 RMK AO2
                 SLP124 P0000 T01780139 $ =
2018-07-21 22:53 METAR KIAG 220253Z 14008G18KT 10SM -RA FEW090 SCT120 19/14 A2992 RMK AO2 RAB34
                 SLP127 P0000 60000 T01940139 51013 $ =
2018-07-21 21:53 METAR KIAG 220153Z 14009KT 10SM FEW100 21/13 A2992 RMK AO2 RAB07E32 SLP126 P0000
                 T02110128 =
2018-07-21 20:53 METAR KIAG 220053Z 12016G20KT 10SM CLR 23/14 A2990 RMK AO2 SLP122 T02330139 =
2018-07-21 19:53 METAR KIAG 212353Z 13010KT 10SM CLR 24/14 A2988 RMK AO2 SLP115 60000 T02440144
                 10294 20244 53004 =
2018-07-21 18:53 METAR KIAG 212253Z 12014G20KT 10SM OVC049 26/15 A2988 RMK AO2 SLP113 T02560150 =
2018-07-21 17:53 METAR KIAG 212153Z 13012G19KT 10SM SCT049 28/16 A2987 RMK AO2 SLP109 T02780161 =
2018-07-21 16:53 METAR KIAG 212053Z 14010KT 10SM SCT047 BKN095 29/17 A2987 RMK AO2 SLP109 60000
                 T02890167 56007 =
2018-07-21 15:53 METAR KIAG 211953Z 11009KT 10SM FEW045 BKN080 27/16 A2988 RMK AO2 RAE02 SLP110
                 P0000 T02720161 =
2018-07-21 14:53 METAR KIAG 211853Z 09007KT 10SM -RA BKN065 26/16 A2988 RMK AO2 RAB25 SLP112
                 P0000 T02610161 =
2018-07-21 13:53 METAR KIAG 211753Z VRB05KT 10SM FEW045 BKN060 OVC075 27/16 A2989 RMK AO2 SLP116
                 T02670161 10283 20222 58004 =
2018-07-21 12:53 METAR KIAG 211653Z 15005KT 10SM OVC075 27/16 A2990 RMK AO2 SLP120 T02670161 =
2018-07-21 11:53 METAR KIAG 211553Z 16008KT 10SM FEW042 OVC080 27/16 A2991 RMK AO2 SLP121
                 T02670161 =
2018-07-21 10:53 METAR KIAG 211453Z 16008KT 10SM SCT080 SCT100 28/16 A2990 RMK AO2 SLP119
                 T02780161 51002 =
2018-07-21 09:53 METAR KIAG 211353Z 17011KT 10SM SCT080 25/16 A2990 RMK AO2 SLP119 T02500156 =
2018-07-21 08:53 METAR KIAG 211253Z 16011KT 10SM BKN085 23/15 A2991 RMK AO2 SLP120 T02330150 =

Support USWX by starting your Amazon purchase here.